Flight Track Log - Related Links

Times and Time Zones

All times are in EDT time to prevent confusion due to time zone crossing. See the N30VP flight status page for this flight to view local times or setup timezone preferences in your user account.

Time Position Orientation Groundspeed Altitude Reporting Facility
EDT Latitude Longitude Course Direction KTS MPH feet Rate Location/Type
Sat 10:46:26 AM 26.7756 -80.0003 354° North 243 280 10,000  Level Miami Center
Sat 10:47:26 AM 26.8672 -80.0144 352° North 326 375 10,000 50 Level Miami Center
Sat 10:48:26 AM 26.9539 -80.0539 338° Northwest 345 397 10,100 1,000 Climbing Miami Center
Sat 10:49:26 AM 26.9806 -80.1736 284° West 323 372 12,000 950 Climbing Miami Center
Sat 10:50:00 AM 27.3411 -80.0050 326° Northwest  Level Estimated
Sat 10:50:26 AM 27.0050 -80.2861 284° West 352 405 12,000  Level Miami Center
Sat 10:51:26 AM 27.0317 -80.4011 285° West 373 429 12,300 2,000 Climbing Miami Center
Sat 10:52:26 AM 27.1075 -80.4594 326° Northwest 353 406 16,000 3,550 Climbing Miami Center
Sat 10:53:26 AM 27.1983 -80.4997 338° Northwest 353 406 19,400 3,250 Climbing Miami Center
Sat 10:54:26 AM 27.2850 -80.5328 341° North 342 394 22,500 2,850 Climbing Miami Center
Sat 10:55:26 AM 27.3697 -80.5706 338° Northwest 330 380 25,100 2,500 Climbing Miami Center
Sat 10:56:26 AM 27.4544 -80.6036 341° North 325 374 27,500 2,000 Climbing Miami Center
Sat 10:57:26 AM 27.5433 -80.6369 342° North 325 374 29,100 1,400 Climbing Miami Center
Sat 10:58:26 AM 27.6342 -80.6753 340° North 335 386 30,300 1,450 Climbing Miami Center
Sat 10:59:26 AM 27.7311 -80.7158 340° North 349 402 32,000 1,650 Climbing Miami Center
Sat 11:00:26 AM 27.8261 -80.7544 340° North 355 409 33,600 1,650 Climbing Miami Center
Sat 11:01:26 AM 27.9358 -80.7958 342° North 371 427 35,300 1,550 Climbing Miami Center
Sat 11:02:26 AM 28.0306 -80.8344 340° North 364 419 36,700 1,350 Climbing Miami Center
Sat 11:03:26 AM 28.1214 -80.8728 340° North 364 419 38,000 1,150 Climbing Miami Center
Sat 11:04:26 AM 28.2122 -80.9114 339° North 353 406 39,000 500 Climbing Miami Center
Sat 11:05:26 AM 28.3050 -80.9500 340° North 353 406 39,000  Level Miami Center
Sat 11:06:26 AM 28.4081 -80.9917 340° North 367 422 39,000  Level Miami Center
Sat 11:07:06 AM 28.4681 -81.0200 337° Northwest 380 437 39,000  Level Jacksonville Center
Sat 11:08:06 AM 28.5750 -81.0631 341° North 411 473 39,000  Level Jacksonville Center
Sat 11:09:06 AM 28.6822 -81.1058 341° North 411 473 39,000  Level Jacksonville Center
Sat 11:10:06 AM 28.7911 -81.1394 345° North 411 473 39,000  Level Jacksonville Center
Sat 11:11:06 AM 28.9042 -81.1661 348° North 405 466 39,000  Level Jacksonville Center
Sat 11:12:06 AM 29.0172 -81.1925 348° North 405 466 39,000  Level Jacksonville Center
Sat 11:13:06 AM 29.1325 -81.2192 349° North 410 472 39,000  Level Jacksonville Center
Sat 11:14:06 AM 29.2456 -81.2456 348° North 410 472 39,000  Level Jacksonville Center
Sat 11:15:06 AM 29.3650 -81.2769 347° North 410 472 39,000  Level Jacksonville Center
Sat 11:16:06 AM 29.4717 -81.3014 349° North 417 480 39,000  Level Jacksonville Center
Sat 11:17:06 AM 29.5825 -81.3283 348° North 412 474 39,000  Level Jacksonville Center
Sat 11:18:06 AM 29.6978 -81.3553 349° North 412 474 39,000  Level Jacksonville Center
Sat 11:19:06 AM 29.8108 -81.3822 348° North 412 474 39,000  Level Jacksonville Center
Sat 11:20:06 AM 29.9239 -81.4092 348° North 412 474 39,000  Level Jacksonville Center
Sat 11:21:06 AM 30.0389 -81.4386 348° North 412 474 39,000  Level Jacksonville Center
Sat 11:22:06 AM 30.1519 -81.4656 348° North 412 474 39,000  Level Jacksonville Center
Sat 11:23:06 AM 30.2672 -81.4928 348° North 412 474 39,000  Level Jacksonville Center
Sat 11:24:06 AM 30.3947 -81.5175 351° North 412 474 39,000  Level Jacksonville Center
Sat 11:25:06 AM 30.5092 -81.4797 16° North 430 495 39,000  Level Jacksonville Center
Sat 11:26:06 AM 30.6322 -81.4633 North 435 501 39,000  Level Jacksonville Center
Sat 11:27:06 AM 30.7553 -81.4397 North 441 507 39,000  Level Jacksonville Center
Sat 11:28:06 AM 30.8761 -81.4233 North 441 507 39,000  Level Jacksonville Center
Sat 11:29:06 AM 31.0011 -81.3994 North 446 513 39,000  Level Jacksonville Center
Sat 11:30:06 AM 31.1239 -81.3783 North 441 507 39,000  Level Jacksonville Center
Sat 11:31:06 AM 31.2447 -81.3569 North 441 507 39,000  Level Jacksonville Center
Sat 11:32:06 AM 31.3761 -81.3328 North 434 499 39,000  Level Jacksonville Center
Sat 11:33:06 AM 31.4844 -81.3139 North 434 499 39,000  Level Jacksonville Center
Sat 11:34:06 AM 31.6156 -81.2897 North 434 499 39,000  Level Jacksonville Center
Sat 11:35:06 AM 31.7261 -81.2708 North 439 505 39,000  Level Jacksonville Center
Sat 11:36:06 AM 31.8614 -81.2489 North 444 511 39,000  Level Jacksonville Center
Sat 11:37:06 AM 31.9739 -81.2322 North 444 511 39,000  Level Jacksonville Center
Sat 11:38:06 AM 32.0969 -81.2103 North 444 511 39,000  Level Jacksonville Center
Sat 11:39:06 AM 32.2197 -81.1761 13° North 444 511 39,000  Level Jacksonville Center
Sat 11:40:06 AM 32.3381 -81.1297 18° North 449 517 39,000  Level Jacksonville Center
Sat 11:41:06 AM 32.4750 -81.0825 16° North 456 525 39,000  Level Jacksonville Center
Sat 11:42:06 AM 32.5831 -81.0483 15° North 451 519 39,000  Level Jacksonville Center
Sat 11:43:06 AM 32.7078 -81.0114 14° North 451 519 39,000  Level Jacksonville Center
Sat 11:44:06 AM 32.8306 -80.9767 13° North 451 519 39,000  Level Jacksonville Center
Sat 11:45:06 AM 32.9531 -80.9369 15° North 451 519 39,000  Level Jacksonville Center
Sat 11:46:06 AM 33.0778 -80.9019 13° North 451 519 39,000  Level Jacksonville Center
Sat 11:47:06 AM 33.2003 -80.8644 14° North 451 519 39,000 -50 Level Jacksonville Center
Sat 11:48:06 AM 33.3250 -80.8292 13° North 451 519 38,900  Descending Jacksonville Center
Sat 11:49:06 AM 33.4494 -80.7892 15° North 451 519 39,000 50 Climbing Jacksonville Center
Sat 11:50:06 AM 33.5761 -80.7511 14° North 451 519 39,000  Level Jacksonville Center
Sat 11:52:20 AM 33.8544 -80.6644 14° North 453 521 39,000  Level Atlanta Center
Sat 11:53:20 AM 33.9786 -80.6269 14° North 449 517 39,000  Level Atlanta Center
Sat 11:54:20 AM 34.0867 -80.6150 North 438 504 39,000  Level Atlanta Center
Sat 11:55:20 AM 34.2114 -80.5975 North 444 511 39,000  Level Atlanta Center
Sat 11:56:20 AM 34.3361 -80.5822 North 439 505 39,000  Level Atlanta Center
Sat 11:57:20 AM 34.4589 -80.5697 North 439 505 39,000  Level Atlanta Center
Sat 11:58:20 AM 34.5789 -80.5244 17° North 445 512 39,000  Level Atlanta Center
Sat 11:59:20 AM 34.7006 -80.4789 17° North 450 518 39,000  Level Atlanta Center
Sat 12:00:20 PM 34.8225 -80.4358 16° North 450 518 39,000  Level Atlanta Center
Sat 12:01:20 PM 34.9544 -80.3844 18° North 450 518 39,000  Level Atlanta Center
Sat 12:02:20 PM 35.0742 -80.3411 16° North 450 518 39,000  Level Atlanta Center
Sat 12:03:20 PM 35.1939 -80.2978 16° North 450 518 39,000  Level Atlanta Center
Sat 12:04:20 PM 35.3136 -80.2514 18° North 450 518 39,000  Level Atlanta Center
Sat 12:05:20 PM 35.4331 -80.2053 17° North 450 518 39,000  Level Atlanta Center
Sat 12:06:20 PM 35.5528 -80.1614 17° North 455 524 39,000 -377 Level Atlanta Center
Sat 12:08:15 PM 35.7800 -80.0750 17° North 445 512 37,900 -759 Descending Washington Center
Sat 12:09:14 PM 35.8878 -80.0403 15° North 440 506 36,800 -1,059 Descending Washington Center
Sat 12:10:14 PM 36.0019 -79.9978 17° North 440 506 35,800 -694 Descending Washington Center
Sat 12:11:15 PM 36.1167 -79.9425 21° North 440 506 35,400 -403 Descending Washington Center
Sat 12:12:13 PM 36.2317 -79.8794 24° Northeast 440 506 35,000 -203 Descending Washington Center
Sat 12:13:13 PM 36.3483 -79.8214 22° Northeast 440 506 35,000  Level Washington Center
Sat 12:14:13 PM 36.4656 -79.7528 25° Northeast 447 514 35,000  Level Washington Center
Sat 12:15:14 PM 36.5825 -79.6892 24° Northeast 452 520 35,000 -197 Level Washington Center
Sat 12:16:15 PM 36.7017 -79.6231 24° Northeast 452 520 34,600 -545 Descending Washington Center
Sat 12:17:15 PM 36.8333 -79.5519 23° Northeast 457 526 33,900 -610 Descending Washington Center
Sat 12:18:13 PM 36.9481 -79.4903 23° Northeast 451 519 33,400 -1,017 Descending Washington Center
Sat 12:19:13 PM 37.0669 -79.4233 24° Northeast 451 519 31,900 -1,587 Descending Washington Center
Sat 12:20:14 PM 37.1858 -79.3589 23° Northeast 456 525 30,200 -1,623 Descending Washington Center
Sat 12:21:15 PM 37.2919 -79.2989 24° Northeast 456 525 28,600 -1,636 Descending Washington Center
Sat 12:22:15 PM 37.4108 -79.2342 23° Northeast 461 531 26,900 -1,627 Descending Washington Center
Sat 12:23:13 PM 37.5147 -79.1789 23° Northeast 461 531 25,400 -1,475 Descending Washington Center
Sat 12:24:13 PM 37.6547 -79.1014 24° Northeast 461 531 24,000 -694 Descending Washington Center
Sat 12:25:14 PM 37.7692 -79.0386 23° Northeast 451 519 24,000  Level Washington Center
Sat 12:26:15 PM 37.8836 -78.9753 24° Northeast 446 513 24,000 -504 Level Washington Center
Sat 12:27:13 PM 37.9875 -78.9167 24° Northeast 446 513 23,000 4,576 Descending Washington Center
Sat 12:28:13 PM 38.0975 -78.8556 24° Northeast 441 507 33,000 -1,983 Climbing Washington Center
Sat 12:29:14 PM 38.2078 -78.7944 24° Northeast 436 502 19,000 -7,820 Descending Washington Center
Sat 12:30:15 PM 38.3222 -78.7253 25° Northeast 419 482 17,100 -1,866 Descending Washington Center
Sat 12:31:13 PM 38.4322 -78.6636 24° Northeast 419 482 15,300 -1,815 Descending Washington Center
Sat 12:32:14 PM 38.5400 -78.6017 24° Northeast 419 482 13,500 -1,686 Descending Washington Center
Sat 12:33:14 PM 38.6311 -78.5417 27° Northeast 395 455 11,900 -1,587 Descending Washington Center
Sat 12:34:15 PM 38.7078 -78.4836 31° Northeast 353 406 10,300 -1,388 Descending Washington Center
Sat 12:35:15 PM 38.7756 -78.4303 32° Northeast 315 362 9,100 -661 Descending Washington Center
Sat 12:36:13 PM 38.8414 -78.3794 31° Northeast 283 326 9,000 -50 Descending Washington Center
Sat 12:37:14 PM 38.8989 -78.3364 30° Northeast 276 318 9,000  Level Washington Center
Sat 12:38:14 PM 38.9689 -78.2803 32° Northeast 269 310 9,000  Level Washington Center
Sat 12:39:15 PM 39.0325 -78.2292 32° Northeast 269 310 9,000  Level Washington Center
Sat 12:40:13 PM 39.0961 -78.1778 32° Northeast 269 310 9,000  Level Washington Center
Sat 12:41:14 PM 39.1217 -78.1575 32° Northeast 269 310 9,000  Level Washington Center
Sat 12:43:15 PM 39.1217 -78.1575 180° South 269 310 9,000  Level Washington Center
Sat 12:45:00 PM 39.1333 -78.1333 38° Northeast  Level FlightAware Approximate
Sat 12:52:00 PM 39.1435 -78.1444 38° Northeast  Level Estimated
Sat 12:53:00 PM 39.1435 -78.1444 38° Northeast  Level Estimated
Sat 12:54:00 PM 39.1435 -78.1444 38° Northeast  Level Estimated
Sat 12:55:00 PM 39.1435 -78.1444 38° Northeast  Level Estimated
Sat 12:56:00 PM 39.1435 -78.1444 38° Northeast  Level Estimated
Sat 12:57:00 PM 39.1435 -78.1444 38° Northeast  Level Estimated
Sat 12:58:00 PM 39.1435 -78.1444 38° Northeast  Level Estimated

Login

Don't have an account? Register now (free) for customized features, flight alerts, and more!